sensor_id;sensor_type;location;lat;lon;timestamp;pressure;altitude;pressure_sealevel;temperature;humidity
8318;BME280;4196;48.926;8.964;2023-04-02T00:01:34;98247.75;;;9.02;100.00
8318;BME280;4196;48.926;8.964;2023-04-02T00:04:22;98248.56;;;9.10;100.00
8318;BME280;4196;48.926;8.964;2023-04-02T00:07:24;98250.31;;;9.05;100.00
8318;BME280;4196;48.926;8.964;2023-04-02T00:10:25;98256.34;;;9.07;100.00
8318;BME280;4196;48.926;8.964;2023-04-02T00:16:05;98229.81;;;8.89;100.00
8318;BME280;4196;48.926;8.964;2023-04-02T00:18:54;98251.28;;;8.96;100.00
8318;BME280;4196;48.926;8.964;2023-04-02T00:21:44;98260.78;;;8.89;100.00
8318;BME280;4196;48.926;8.964;2023-04-02T00:24:32;98265.09;;;8.89;100.00
8318;BME280;4196;48.926;8.964;2023-04-02T00:27:19;98271.13;;;8.89;100.00
8318;BME280;4196;48.926;8.964;2023-04-02T00:30:06;98253.94;;;8.85;100.00
8318;BME280;4196;48.926;8.964;2023-04-02T00:32:54;98273.69;;;8.89;100.00
8318;BME280;4196;48.926;8.964;2023-04-02T00:35:41;98277.09;;;8.94;100.00
8318;BME280;4196;48.926;8.964;2023-04-02T00:38:32;98269.47;;;8.79;100.00
8318;BME280;4196;48.926;8.964;2023-04-02T00:41:24;98278.94;;;8.82;100.00
8318;BME280;4196;48.926;8.964;2023-04-02T00:44:14;98287.56;;;8.78;100.00
8318;BME280;4196;48.926;8.964;2023-04-02T00:47:22;98283.31;;;8.74;100.00
8318;BME280;4196;48.926;8.964;2023-04-02T00:53:09;98285.84;;;8.75;100.00
8318;BME280;4196;48.926;8.964;2023-04-02T00:55:58;98290.13;;;8.76;100.00
8318;BME280;4196;48.926;8.964;2023-04-02T00:58:51;98291.88;;;8.76;100.00
8318;BME280;4196;48.926;8.964;2023-04-02T01:01:38;98267.84;;;8.67;100.00
8318;BME280;4196;48.926;8.964;2023-04-02T01:04:34;98294.47;;;8.73;100.00
8318;BME280;4196;48.926;8.964;2023-04-02T01:07:42;98286.78;;;8.66;100.00
8318;BME280;4196;48.926;8.964;2023-04-02T01:14:02;98299.75;;;8.57;100.00
8318;BME280;4196;48.926;8.964;2023-04-02T01:17:32;98298.91;;;8.54;100.00
8318;BME280;4196;48.926;8.964;2023-04-02T01:23:15;98301.59;;;8.34;100.00
8318;BME280;4196;48.926;8.964;2023-04-02T01:32:16;98312.78;;;8.40;100.00
8318;BME280;4196;48.926;8.964;2023-04-02T01:35:03;98315.28;;;8.51;100.00
8318;BME280;4196;48.926;8.964;2023-04-02T01:37:58;98312.78;;;8.37;100.00
8318;BME280;4196;48.926;8.964;2023-04-02T01:43:46;98314.41;;;8.52;100.00
8318;BME280;4196;48.926;8.964;2023-04-02T01:46:41;98320.44;;;8.51;100.00
8318;BME280;4196;48.926;8.964;2023-04-02T01:49:27;98315.38;;;8.33;100.00
8318;BME280;4196;48.926;8.964;2023-04-02T01:52:18;98326.53;;;8.38;100.00
8318;BME280;4196;48.926;8.964;2023-04-02T01:55:13;98335.09;;;8.46;100.00
8318;BME280;4196;48.926;8.964;2023-04-02T01:58:00;98335.97;;;8.39;100.00
8318;BME280;4196;48.926;8.964;2023-04-02T02:00:52;98331.69;;;8.36;100.00
8318;BME280;4196;48.926;8.964;2023-04-02T02:03:43;98330.03;;;8.20;100.00
8318;BME280;4196;48.926;8.964;2023-04-02T02:06:31;98336.94;;;8.18;100.00
8318;BME280;4196;48.926;8.964;2023-04-02T02:09:23;98332.56;;;8.28;100.00
8318;BME280;4196;48.926;8.964;2023-04-02T02:12:13;98335.09;;;8.35;100.00
8318;BME280;4196;48.926;8.964;2023-04-02T02:15:00;98333.47;;;8.19;100.00
8318;BME280;4196;48.926;8.964;2023-04-02T02:17:48;98335.25;;;8.08;100.00
8318;BME280;4196;48.926;8.964;2023-04-02T02:20:35;98338.66;;;8.14;100.00
8318;BME280;4196;48.926;8.964;2023-04-02T02:23:22;98328.41;;;8.04;100.00
8318;BME280;4196;48.926;8.964;2023-04-02T02:26:10;98344.75;;;7.96;100.00
8318;BME280;4196;48.926;8.964;2023-04-02T02:29:02;98328.47;;;7.85;100.00
8318;BME280;4196;48.926;8.964;2023-04-02T02:31:52;98352.44;;;8.03;100.00
8318;BME280;4196;48.926;8.964;2023-04-02T02:34:50;98346.44;;;8.04;100.00
8318;BME280;4196;48.926;8.964;2023-04-02T02:37:43;98350.72;;;8.05;100.00
8318;BME280;4196;48.926;8.964;2023-04-02T02:40:39;98355.88;;;8.11;100.00
8318;BME280;4196;48.926;8.964;2023-04-02T02:43:30;98356.72;;;8.13;100.00
8318;BME280;4196;48.926;8.964;2023-04-02T02:46:19;98361.03;;;8.08;100.00
8318;BME280;4196;48.926;8.964;2023-04-02T02:49:15;98353.34;;;7.94;100.00
8318;BME280;4196;48.926;8.964;2023-04-02T02:58:02;98362.72;;;8.15;100.00
8318;BME280;4196;48.926;8.964;2023-04-02T03:00:59;98372.25;;;8.01;100.00
8318;BME280;4196;48.926;8.964;2023-04-02T03:03:47;98379.94;;;8.14;100.00
8318;BME280;4196;48.926;8.964;2023-04-02T03:06:39;98374.75;;;8.13;100.00
8318;BME280;4196;48.926;8.964;2023-04-02T03:09:51;98381.72;;;7.95;100.00
8318;BME280;4196;48.926;8.964;2023-04-02T03:12:51;98384.28;;;7.94;100.00
8318;BME280;4196;48.926;8.964;2023-04-02T03:16:08;98385.16;;;7.90;100.00
8318;BME280;4196;48.926;8.964;2023-04-02T03:22:30;98387.66;;;8.17;100.00
8318;BME280;4196;48.926;8.964;2023-04-02T03:25:29;98332.78;;;7.82;100.00
8318;BME280;4196;48.926;8.964;2023-04-02T03:28:22;98396.25;;;8.12;100.00
8318;BME280;4196;48.926;8.964;2023-04-02T03:31:25;98406.56;;;8.12;100.00
8318;BME280;4196;48.926;8.964;2023-04-02T03:34:21;98403.16;;;8.02;100.00
8318;BME280;4196;48.926;8.964;2023-04-02T03:37:23;98403.97;;;8.18;100.00
8318;BME280;4196;48.926;8.964;2023-04-02T03:40:18;98413.44;;;8.14;100.00
8318;BME280;4196;48.926;8.964;2023-04-02T03:43:20;98421.16;;;8.19;100.00
8318;BME280;4196;48.926;8.964;2023-04-02T03:49:37;98427.13;;;8.30;100.00
8318;BME280;4196;48.926;8.964;2023-04-02T03:52:27;98435.75;;;8.32;100.00
8318;BME280;4196;48.926;8.964;2023-04-02T03:55:26;98431.44;;;8.36;100.00
8318;BME280;4196;48.926;8.964;2023-04-02T03:58:23;98438.31;;;8.32;100.00
8318;BME280;4196;48.926;8.964;2023-04-02T04:01:32;98440.00;;;8.32;100.00
8318;BME280;4196;48.926;8.964;2023-04-02T04:04:24;98436.63;;;8.19;100.00
8318;BME280;4196;48.926;8.964;2023-04-02T04:07:35;98440.09;;;8.15;100.00
8318;BME280;4196;48.926;8.964;2023-04-02T04:10:25;98433.25;;;7.98;100.00
8318;BME280;4196;48.926;8.964;2023-04-02T04:13:15;98461.63;;;8.03;100.00
8318;BME280;4196;48.926;8.964;2023-04-02T04:16:07;98457.31;;;7.90;100.00
8318;BME280;4196;48.926;8.964;2023-04-02T04:19:20;98453.91;;;7.79;100.00
8318;BME280;4196;48.926;8.964;2023-04-02T04:22:22;98451.34;;;7.71;100.00
8318;BME280;4196;48.926;8.964;2023-04-02T04:25:27;98450.47;;;7.61;100.00
8318;BME280;4196;48.926;8.964;2023-04-02T04:28:25;98474.50;;;7.83;100.00
8318;BME280;4196;48.926;8.964;2023-04-02T04:31:21;98474.53;;;7.85;100.00
8318;BME280;4196;48.926;8.964;2023-04-02T04:34:39;98476.22;;;7.87;100.00
8318;BME280;4196;48.926;8.964;2023-04-02T04:37:36;98479.66;;;7.80;100.00
8318;BME280;4196;48.926;8.964;2023-04-02T04:40:44;98484.00;;;7.84;100.00
8318;BME280;4196;48.926;8.964;2023-04-02T04:43:51;98481.41;;;7.75;100.00
8318;BME280;4196;48.926;8.964;2023-04-02T04:46:44;98490.00;;;7.68;100.00
8318;BME280;4196;48.926;8.964;2023-04-02T04:52:39;98502.00;;;7.72;100.00
8318;BME280;4196;48.926;8.964;2023-04-02T04:55:42;98479.69;;;7.42;100.00
8318;BME280;4196;48.926;8.964;2023-04-02T04:58:39;98505.44;;;7.51;100.00
8318;BME280;4196;48.926;8.964;2023-04-02T05:01:49;98512.34;;;7.60;100.00
8318;BME280;4196;48.926;8.964;2023-04-02T05:04:42;98512.31;;;7.44;100.00
8318;BME280;4196;48.926;8.964;2023-04-02T05:07:44;98526.03;;;7.43;100.00
8318;BME280;4196;48.926;8.964;2023-04-02T05:10:51;98520.03;;;7.43;100.00
8318;BME280;4196;48.926;8.964;2023-04-02T05:14:05;98524.34;;;7.41;100.00
8318;BME280;4196;48.926;8.964;2023-04-02T05:17:01;98519.19;;;7.58;100.00
8318;BME280;4196;48.926;8.964;2023-04-02T05:20:09;98472.81;;;7.15;100.00
8318;BME280;4196;48.926;8.964;2023-04-02T05:23:28;98540.66;;;7.58;100.00
8318;BME280;4196;48.926;8.964;2023-04-02T05:26:24;98534.66;;;7.52;100.00
8318;BME280;4196;48.926;8.964;2023-04-02T05:29:19;98544.09;;;7.60;100.00
8318;BME280;4196;48.926;8.964;2023-04-02T05:32:13;98538.94;;;7.56;100.00
8318;BME280;4196;48.926;8.964;2023-04-02T05:35:02;98535.50;;;7.52;100.00
8318;BME280;4196;48.926;8.964;2023-04-02T05:37:55;98544.97;;;7.73;100.00
8318;BME280;4196;48.926;8.964;2023-04-02T05:40:45;98552.69;;;7.84;100.00
8318;BME280;4196;48.926;8.964;2023-04-02T05:43:35;98543.25;;;7.78;100.00
8318;BME280;4196;48.926;8.964;2023-04-02T05:46:27;98558.72;;;7.87;100.00
8318;BME280;4196;48.926;8.964;2023-04-02T05:49:23;98557.00;;;7.66;100.00
8318;BME280;4196;48.926;8.964;2023-04-02T05:52:22;98558.69;;;7.64;100.00
8318;BME280;4196;48.926;8.964;2023-04-02T05:58:13;98555.25;;;7.58;100.00
8318;BME280;4196;48.926;8.964;2023-04-02T06:01:31;98568.16;;;7.59;100.00
8318;BME280;4196;48.926;8.964;2023-04-02T06:07:22;98576.75;;;7.67;100.00
8318;BME280;4196;48.926;8.964;2023-04-02T06:10:22;98595.66;;;7.85;100.00
8318;BME280;4196;48.926;8.964;2023-04-02T06:13:17;98584.50;;;7.96;100.00
8318;BME280;4196;48.926;8.964;2023-04-02T06:16:05;98587.94;;;8.08;100.00
8318;BME280;4196;48.926;8.964;2023-04-02T06:18:53;98600.81;;;8.23;100.00
8318;BME280;4196;48.926;8.964;2023-04-02T06:21:45;98599.09;;;8.20;100.00
8318;BME280;4196;48.926;8.964;2023-04-02T06:24:33;98596.53;;;8.16;100.00
8318;BME280;4196;48.926;8.964;2023-04-02T06:27:24;98597.41;;;8.10;100.00
8318;BME280;4196;48.926;8.964;2023-04-02T06:30:19;98616.31;;;8.38;100.00
8318;BME280;4196;48.926;8.964;2023-04-02T06:33:12;98621.47;;;8.49;100.00
8318;BME280;4196;48.926;8.964;2023-04-02T06:36:05;98598.25;;;8.32;100.00
8318;BME280;4196;48.926;8.964;2023-04-02T06:38:56;98620.63;;;8.47;100.00
8318;BME280;4196;48.926;8.964;2023-04-02T06:41:45;98626.63;;;8.46;100.00
8318;BME280;4196;48.926;8.964;2023-04-02T06:44:51;98632.63;;;8.66;100.00
8318;BME280;4196;48.926;8.964;2023-04-02T06:47:58;98639.50;;;8.69;100.00
8318;BME280;4196;48.926;8.964;2023-04-02T06:51:04;98641.19;;;8.76;100.00
8318;BME280;4196;48.926;8.964;2023-04-02T06:53:53;98645.47;;;8.83;100.00
8318;BME280;4196;48.926;8.964;2023-04-02T06:56:46;98648.91;;;8.87;100.00
8318;BME280;4196;48.926;8.964;2023-04-02T06:59:38;98638.53;;;9.05;100.00
8318;BME280;4196;48.926;8.964;2023-04-02T07:02:33;98663.44;;;9.25;100.00
8318;BME280;4196;48.926;8.964;2023-04-02T07:05:23;98665.13;;;9.30;100.00
8318;BME280;4196;48.926;8.964;2023-04-02T07:08:12;98663.41;;;9.34;100.00
8318;BME280;4196;48.926;8.964;2023-04-02T07:10:59;98676.28;;;9.43;100.00
8318;BME280;4196;48.926;8.964;2023-04-02T07:13:47;98667.72;;;9.24;100.00
8318;BME280;4196;48.926;8.964;2023-04-02T07:16:35;98676.34;;;9.26;100.00
8318;BME280;4196;48.926;8.964;2023-04-02T07:19:22;98683.25;;;9.26;100.00
8318;BME280;4196;48.926;8.964;2023-04-02T07:22:18;98671.16;;;9.28;100.00
8318;BME280;4196;48.926;8.964;2023-04-02T07:25:09;98692.59;;;9.50;100.00
8318;BME280;4196;48.926;8.964;2023-04-02T07:27:56;98694.31;;;9.52;100.00
8318;BME280;4196;48.926;8.964;2023-04-02T07:30:43;98688.25;;;9.65;100.00
8318;BME280;4196;48.926;8.964;2023-04-02T07:33:29;98681.22;;;9.86;100.00
8318;BME280;4196;48.926;8.964;2023-04-02T07:36:21;98678.59;;;9.93;100.00
8318;BME280;4196;48.926;8.964;2023-04-02T07:39:09;98679.44;;;9.99;100.00
8318;BME280;4196;48.926;8.964;2023-04-02T07:41:57;98700.84;;;10.28;100.00
8318;BME280;4196;48.926;8.964;2023-04-02T07:44:44;98699.94;;;10.32;100.00
8318;BME280;4196;48.926;8.964;2023-04-02T07:47:31;98710.19;;;10.42;100.00
8318;BME280;4196;48.926;8.964;2023-04-02T07:50:18;98707.72;;;10.29;100.00
8318;BME280;4196;48.926;8.964;2023-04-02T07:53:04;98705.78;;;10.53;100.00
8318;BME280;4196;48.926;8.964;2023-04-02T07:55:52;98711.88;;;10.53;100.00
8318;BME280;4196;48.926;8.964;2023-04-02T07:58:40;98717.00;;;10.56;100.00
8318;BME280;4196;48.926;8.964;2023-04-02T08:01:27;98724.78;;;10.52;100.00
8318;BME280;4196;48.926;8.964;2023-04-02T08:04:17;98725.72;;;10.46;100.00
8318;BME280;4196;48.926;8.964;2023-04-02T08:07:04;98734.19;;;10.63;100.00
8318;BME280;4196;48.926;8.964;2023-04-02T08:09:50;98728.13;;;10.66;100.00
8318;BME280;4196;48.926;8.964;2023-04-02T08:12:37;98740.06;;;10.82;100.00
8318;BME280;4196;48.926;8.964;2023-04-02T08:15:23;98727.25;;;10.72;100.00
8318;BME280;4196;48.926;8.964;2023-04-02T08:18:10;98735.03;;;10.64;100.00
8318;BME280;4196;48.926;8.964;2023-04-02T08:20:58;98741.78;;;10.86;100.00
8318;BME280;4196;48.926;8.964;2023-04-02T08:23:45;98742.56;;;10.93;99.44
8318;BME280;4196;48.926;8.964;2023-04-02T08:26:31;98767.44;;;11.11;99.16
8318;BME280;4196;48.926;8.964;2023-04-02T08:29:18;98777.84;;;11.08;97.24
8318;BME280;4196;48.926;8.964;2023-04-02T08:32:05;98777.91;;;11.05;98.39
8318;BME280;4196;48.926;8.964;2023-04-02T08:34:52;98764.84;;;11.14;96.58
8318;BME280;4196;48.926;8.964;2023-04-02T08:37:40;98775.03;;;11.32;97.05
8318;BME280;4196;48.926;8.964;2023-04-02T08:40:37;98787.63;;;11.63;94.98
8318;BME280;4196;48.926;8.964;2023-04-02T08:46:32;98766.78;;;11.75;90.95
8318;BME280;4196;48.926;8.964;2023-04-02T08:52:29;98799.03;;;12.24;89.52
8318;BME280;4196;48.926;8.964;2023-04-02T08:55:32;98795.56;;;12.26;87.68
8318;BME280;4196;48.926;8.964;2023-04-02T08:58:39;98808.44;;;12.32;86.99
8318;BME280;4196;48.926;8.964;2023-04-02T09:01:44;98804.25;;;12.22;85.66
8318;BME280;4196;48.926;8.964;2023-04-02T09:04:34;98787.88;;;12.17;84.54
8318;BME280;4196;48.926;8.964;2023-04-02T09:07:22;98815.19;;;12.46;84.10
8318;BME280;4196;48.926;8.964;2023-04-02T09:10:14;98827.09;;;12.59;83.45
8318;BME280;4196;48.926;8.964;2023-04-02T09:13:01;98814.03;;;12.65;82.88
8318;BME280;4196;48.926;8.964;2023-04-02T09:15:58;98824.00;;;12.93;81.53
8318;BME280;4196;48.926;8.964;2023-04-02T09:18:48;98824.00;;;12.93;82.11
8318;BME280;4196;48.926;8.964;2023-04-02T09:21:40;98834.88;;;13.16;79.17
8318;BME280;4196;48.926;8.964;2023-04-02T09:24:29;98827.44;;;12.95;79.16
8318;BME280;4196;48.926;8.964;2023-04-02T09:27:27;98844.31;;;12.66;80.32
8318;BME280;4196;48.926;8.964;2023-04-02T09:33:17;98844.56;;;13.08;79.05
8318;BME280;4196;48.926;8.964;2023-04-02T09:36:04;98821.38;;;12.94;77.69
8318;BME280;4196;48.926;8.964;2023-04-02T09:39:19;98851.22;;;13.26;79.78
8318;BME280;4196;48.926;8.964;2023-04-02T09:42:07;98848.44;;;13.37;78.29
8318;BME280;4196;48.926;8.964;2023-04-02T09:45:20;98856.34;;;13.31;76.65
8318;BME280;4196;48.926;8.964;2023-04-02T09:48:25;98868.00;;;13.59;75.61
8318;BME280;4196;48.926;8.964;2023-04-02T09:51:16;98867.84;;;13.65;74.47
8318;BME280;4196;48.926;8.964;2023-04-02T09:57:02;98869.91;;;13.96;74.38
8318;BME280;4196;48.926;8.964;2023-04-02T10:03:23;98874.66;;;14.19;69.88
8318;BME280;4196;48.926;8.964;2023-04-02T10:06:14;98883.75;;;14.41;69.88
8318;BME280;4196;48.926;8.964;2023-04-02T10:09:31;98883.91;;;14.34;70.89
8318;BME280;4196;48.926;8.964;2023-04-02T10:12:19;98869.97;;;14.35;71.10
8318;BME280;4196;48.926;8.964;2023-04-02T10:15:06;98888.03;;;14.44;68.73
8318;BME280;4196;48.926;8.964;2023-04-02T10:18:10;98868.28;;;14.34;67.84
8318;BME280;4196;48.926;8.964;2023-04-02T10:21:00;98897.66;;;14.40;68.90
8318;BME280;4196;48.926;8.964;2023-04-02T10:23:48;98898.19;;;14.14;68.51
8318;BME280;4196;48.926;8.964;2023-04-02T10:29:55;98892.09;;;14.57;70.37
8318;BME280;4196;48.926;8.964;2023-04-02T10:39:11;98908.25;;;14.74;68.19
8318;BME280;4196;48.926;8.964;2023-04-02T10:42:14;98899.09;;;14.95;68.04
8318;BME280;4196;48.926;8.964;2023-04-02T10:48:19;98914.34;;;14.73;65.55
8318;BME280;4196;48.926;8.964;2023-04-02T10:51:22;98920.44;;;14.72;64.70
8318;BME280;4196;48.926;8.964;2023-04-02T10:54:32;98931.44;;;14.87;62.91
8318;BME280;4196;48.926;8.964;2023-04-02T11:00:31;98928.34;;;14.69;66.81
8318;BME280;4196;48.926;8.964;2023-04-02T11:03:50;98935.22;;;14.73;67.96
8318;BME280;4196;48.926;8.964;2023-04-02T11:06:46;98926.28;;;14.84;66.99
8318;BME280;4196;48.926;8.964;2023-04-02T11:09:38;98932.31;;;14.86;66.88
8318;BME280;4196;48.926;8.964;2023-04-02T11:15:20;98922.88;;;14.82;65.30
8318;BME280;4196;48.926;8.964;2023-04-02T11:18:27;98924.38;;;14.92;64.74
8318;BME280;4196;48.926;8.964;2023-04-02T11:21:46;98940.50;;;14.69;64.84
8318;BME280;4196;48.926;8.964;2023-04-02T11:24:52;98944.69;;;14.76;64.53
8318;BME280;4196;48.926;8.964;2023-04-02T11:27:41;98950.25;;;14.14;64.38
8318;BME280;4196;48.926;8.964;2023-04-02T11:30:28;98954.88;;;14.45;64.45
8318;BME280;4196;48.926;8.964;2023-04-02T11:33:38;98955.84;;;14.83;63.79
8318;BME280;4196;48.926;8.964;2023-04-02T11:39:56;98955.31;;;15.44;58.64
8318;BME280;4196;48.926;8.964;2023-04-02T11:42:44;98963.59;;;15.62;60.68
8318;BME280;4196;48.926;8.964;2023-04-02T11:48:38;98961.38;;;15.82;59.78
8318;BME280;4196;48.926;8.964;2023-04-02T11:54:25;98970.75;;;15.16;61.07
8318;BME280;4196;48.926;8.964;2023-04-02T12:06:49;98980.84;;;14.51;65.21
8318;BME280;4196;48.926;8.964;2023-04-02T12:12:37;98954.91;;;13.46;70.50
8318;BME280;4196;48.926;8.964;2023-04-02T12:15:43;98980.00;;;13.50;71.07
8318;BME280;4196;48.926;8.964;2023-04-02T12:18:31;98970.25;;;13.04;72.26
8318;BME280;4196;48.926;8.964;2023-04-02T12:21:24;98990.84;;;13.18;73.94
8318;BME280;4196;48.926;8.964;2023-04-02T12:24:17;98937.91;;;12.62;74.18
8318;BME280;4196;48.926;8.964;2023-04-02T12:27:20;98936.38;;;12.44;74.58
8318;BME280;4196;48.926;8.964;2023-04-02T12:30:18;98973.84;;;12.21;76.18
8318;BME280;4196;48.926;8.964;2023-04-02T12:36:16;98998.88;;;12.30;76.74
8318;BME280;4196;48.926;8.964;2023-04-02T12:39:03;98981.03;;;11.95;76.77
8318;BME280;4196;48.926;8.964;2023-04-02T12:41:49;98979.25;;;12.00;77.76
8318;BME280;4196;48.926;8.964;2023-04-02T12:44:36;99006.16;;;11.91;78.81
8318;BME280;4196;48.926;8.964;2023-04-02T12:47:23;99013.69;;;12.17;77.64
8318;BME280;4196;48.926;8.964;2023-04-02T12:50:13;99020.69;;;12.12;77.82
8318;BME280;4196;48.926;8.964;2023-04-02T12:53:00;99029.59;;;11.77;88.23
8318;BME280;4196;48.926;8.964;2023-04-02T12:55:49;99052.44;;;11.23;96.35
8318;BME280;4196;48.926;8.964;2023-04-02T12:58:39;99057.81;;;10.71;100.00
8318;BME280;4196;48.926;8.964;2023-04-02T13:01:28;99056.16;;;10.52;100.00
8318;BME280;4196;48.926;8.964;2023-04-02T13:04:16;99053.63;;;10.06;100.00
8318;BME280;4196;48.926;8.964;2023-04-02T13:07:03;99048.44;;;9.83;100.00
8318;BME280;4196;48.926;8.964;2023-04-02T13:09:52;99066.53;;;9.48;100.00
8318;BME280;4196;48.926;8.964;2023-04-02T13:12:40;99056.16;;;9.29;100.00
8318;BME280;4196;48.926;8.964;2023-04-02T13:15:27;99063.00;;;9.19;100.00
8318;BME280;4196;48.926;8.964;2023-04-02T13:18:21;99070.72;;;9.09;100.00
8318;BME280;4196;48.926;8.964;2023-04-02T13:21:22;99077.59;;;9.05;100.00
8318;BME280;4196;48.926;8.964;2023-04-02T13:24:20;99073.25;;;8.93;100.00
8318;BME280;4196;48.926;8.964;2023-04-02T13:27:08;99087.00;;;8.89;100.00
8318;BME280;4196;48.926;8.964;2023-04-02T13:30:06;99036.09;;;8.61;100.00
8318;BME280;4196;48.926;8.964;2023-04-02T13:32:53;99087.81;;;8.81;100.00
8318;BME280;4196;48.926;8.964;2023-04-02T13:35:40;99086.88;;;8.68;100.00
8318;BME280;4196;48.926;8.964;2023-04-02T13:38:27;99086.88;;;8.65;100.00
8318;BME280;4196;48.926;8.964;2023-04-02T13:44:26;99095.34;;;8.45;100.00
8318;BME280;4196;48.926;8.964;2023-04-02T13:47:13;99095.41;;;8.52;100.00
8318;BME280;4196;48.926;8.964;2023-04-02T13:50:00;99086.75;;;8.43;100.00
8318;BME280;4196;48.926;8.964;2023-04-02T13:52:48;99110.88;;;8.50;100.00
8318;BME280;4196;48.926;8.964;2023-04-02T13:55:38;99037.38;;;7.97;100.00
8318;BME280;4196;48.926;8.964;2023-04-02T13:58:25;99114.31;;;8.48;100.00
8318;BME280;4196;48.926;8.964;2023-04-02T14:01:12;99116.00;;;8.45;100.00
8318;BME280;4196;48.926;8.964;2023-04-02T14:03:59;99124.50;;;8.35;100.00
8318;BME280;4196;48.926;8.964;2023-04-02T14:31:36;99176.88;;;8.27;100.00
8318;BME280;4196;48.926;8.964;2023-04-02T14:37:28;99174.28;;;8.23;100.00
8318;BME280;4196;48.926;8.964;2023-04-02T14:43:30;99163.88;;;8.11;100.00
8318;BME280;4196;48.926;8.964;2023-04-02T14:46:17;99176.06;;;8.29;100.00
8318;BME280;4196;48.926;8.964;2023-04-02T14:49:08;99184.84;;;8.50;100.00
8318;BME280;4196;48.926;8.964;2023-04-02T14:52:03;99189.00;;;8.35;100.00
8318;BME280;4196;48.926;8.964;2023-04-02T14:55:01;99188.16;;;8.36;100.00
8318;BME280;4196;48.926;8.964;2023-04-02T14:57:51;99191.53;;;8.29;100.00
8318;BME280;4196;48.926;8.964;2023-04-02T15:01:09;99195.97;;;8.41;100.00
8318;BME280;4196;48.926;8.964;2023-04-02T15:03:59;99196.81;;;8.41;100.00
8318;BME280;4196;48.926;8.964;2023-04-02T15:06:50;99198.59;;;8.49;100.00
8318;BME280;4196;48.926;8.964;2023-04-02T15:09:41;99207.16;;;8.43;100.00
8318;BME280;4196;48.926;8.964;2023-04-02T15:12:34;99207.16;;;8.43;100.00
8318;BME280;4196;48.926;8.964;2023-04-02T15:18:28;99201.75;;;8.18;100.00
8318;BME280;4196;48.926;8.964;2023-04-02T15:21:22;99217.22;;;8.20;100.00
8318;BME280;4196;48.926;8.964;2023-04-02T15:30:31;99229.22;;;8.15;100.00
8318;BME280;4196;48.926;8.964;2023-04-02T15:36:23;99235.97;;;7.99;100.00
8318;BME280;4196;48.926;8.964;2023-04-02T15:42:17;99248.13;;;8.11;100.00
8318;BME280;4196;48.926;8.964;2023-04-02T15:54:23;99251.31;;;7.91;100.00
8318;BME280;4196;48.926;8.964;2023-04-02T16:01:07;99271.94;;;7.88;100.00
8318;BME280;4196;48.926;8.964;2023-04-02T16:07:18;99269.13;;;7.70;100.00
8318;BME280;4196;48.926;8.964;2023-04-02T16:10:17;99283.97;;;7.89;100.00
8318;BME280;4196;48.926;8.964;2023-04-02T16:13:29;99290.03;;;7.93;100.00
8318;BME280;4196;48.926;8.964;2023-04-02T16:16:31;99291.72;;;7.89;100.00
8318;BME280;4196;48.926;8.964;2023-04-02T16:22:29;99307.81;;;7.70;100.00
8318;BME280;4196;48.926;8.964;2023-04-02T16:25:19;99314.78;;;7.80;100.00
8318;BME280;4196;48.926;8.964;2023-04-02T16:28:23;99319.16;;;7.84;100.00
8318;BME280;4196;48.926;8.964;2023-04-02T16:31:37;99324.31;;;7.84;100.00
8318;BME280;4196;48.926;8.964;2023-04-02T16:37:49;99312.06;;;7.66;100.00
8318;BME280;4196;48.926;8.964;2023-04-02T16:44:02;99336.91;;;7.63;100.00
8318;BME280;4196;48.926;8.964;2023-04-02T16:53:20;99367.53;;;7.41;100.00
8318;BME280;4196;48.926;8.964;2023-04-02T16:56:19;99370.91;;;7.37;100.00
8318;BME280;4196;48.926;8.964;2023-04-02T17:02:40;99387.72;;;7.17;100.00
8318;BME280;4196;48.926;8.964;2023-04-02T17:08:41;99399.50;;;7.02;100.00
8318;BME280;4196;48.926;8.964;2023-04-02T17:11:39;99397.91;;;7.08;100.00
8318;BME280;4196;48.926;8.964;2023-04-02T17:14:58;99400.22;;;6.94;100.00
8318;BME280;4196;48.926;8.964;2023-04-02T17:17:46;99408.81;;;6.94;100.00
8318;BME280;4196;48.926;8.964;2023-04-02T17:20:33;99410.38;;;6.86;100.00
8318;BME280;4196;48.926;8.964;2023-04-02T17:23:19;99409.47;;;6.84;100.00
8318;BME280;4196;48.926;8.964;2023-04-02T17:26:07;99423.06;;;6.74;100.00
8318;BME280;4196;48.926;8.964;2023-04-02T17:28:56;99433.16;;;6.65;100.00
8318;BME280;4196;48.926;8.964;2023-04-02T17:31:44;99429.78;;;6.69;100.00
8318;BME280;4196;48.926;8.964;2023-04-02T17:34:31;99436.63;;;6.67;100.00
8318;BME280;4196;48.926;8.964;2023-04-02T17:37:46;99446.03;;;6.65;100.00
8318;BME280;4196;48.926;8.964;2023-04-02T17:40:43;99450.22;;;6.60;100.00
8318;BME280;4196;48.926;8.964;2023-04-02T17:43:59;99453.44;;;6.49;100.00
8318;BME280;4196;48.926;8.964;2023-04-02T17:47:14;99471.47;;;6.51;100.00
8318;BME280;4196;48.926;8.964;2023-04-02T17:53:04;99478.72;;;6.28;100.00
8318;BME280;4196;48.926;8.964;2023-04-02T17:56:20;99488.06;;;6.24;100.00
8318;BME280;4196;48.926;8.964;2023-04-02T18:02:33;99500.91;;;6.23;100.00
8318;BME280;4196;48.926;8.964;2023-04-02T18:05:32;99520.41;;;6.15;100.00
8318;BME280;4196;48.926;8.964;2023-04-02T18:08:32;99517.78;;;6.12;100.00
8318;BME280;4196;48.926;8.964;2023-04-02T18:17:42;99541.25;;;5.89;100.00
8318;BME280;4196;48.926;8.964;2023-04-02T18:20:41;99544.69;;;5.91;100.00
8318;BME280;4196;48.926;8.964;2023-04-02T18:33:21;99559.13;;;5.51;99.84
8318;BME280;4196;48.926;8.964;2023-04-02T18:36:28;99575.72;;;5.31;100.00
8318;BME280;4196;48.926;8.964;2023-04-02T18:39:39;99566.91;;;5.21;100.00
8318;BME280;4196;48.926;8.964;2023-04-02T18:49:04;99605.66;;;5.00;97.73
8318;BME280;4196;48.926;8.964;2023-04-02T18:51:56;99612.47;;;4.98;98.55
8318;BME280;4196;48.926;8.964;2023-04-02T18:54:51;99625.31;;;4.98;98.06
8318;BME280;4196;48.926;8.964;2023-04-02T18:57:38;99628.31;;;4.85;96.30
8318;BME280;4196;48.926;8.964;2023-04-02T19:00:30;99625.75;;;4.85;97.24
8318;BME280;4196;48.926;8.964;2023-04-02T19:06:17;99647.03;;;4.81;94.56
8318;BME280;4196;48.926;8.964;2023-04-02T19:09:22;99659.75;;;4.78;95.38
8318;BME280;4196;48.926;8.964;2023-04-02T19:12:15;99649.41;;;4.75;93.19
8318;BME280;4196;48.926;8.964;2023-04-02T19:15:14;99670.84;;;4.77;92.39
8318;BME280;4196;48.926;8.964;2023-04-02T19:18:12;99673.72;;;4.59;92.04
8318;BME280;4196;48.926;8.964;2023-04-02T19:27:17;99688.75;;;4.48;90.31
8318;BME280;4196;48.926;8.964;2023-04-02T19:30:38;99698.84;;;4.42;90.89
8318;BME280;4196;48.926;8.964;2023-04-02T19:36:53;99713.81;;;4.30;90.86
8318;BME280;4196;48.926;8.964;2023-04-02T19:40:12;99727.47;;;4.29;90.64
8318;BME280;4196;48.926;8.964;2023-04-02T19:43:05;99726.47;;;4.25;90.47